DBCOW EDDG-ZZZZ
Flight info
| Callsign | DBCOW |
|---|---|
| Flight time | N/A |
| Altitude | |
| Route | |
| Aircraft | PC12 |
Departure
| Time | 2026-04-25 18:12 |
|---|---|
| Airport | Münster Osnabrück Airport (EDDG) |
Arrival
| Time | N/A |
|---|---|
| Airport | ZZZZ |
| Time | Latitude | Longitude | Altitude | Speed | Heading |
|---|---|---|---|---|---|
| 2026-04-25 18:04 | 52.13140 | 7.68236 | 164 ft | 0 kts | 270° |
| 2026-04-25 18:06 | 52.13171 | 7.68215 | 164 ft | 10 kts | 52° |
| 2026-04-25 18:06 | 52.13206 | 7.68339 | 164 ft | 18 kts | 32° |
| 2026-04-25 18:06 | 52.13252 | 7.68326 | 164 ft | 1 kts | 341° |
| 2026-04-25 18:07 | 52.13271 | 7.68392 | 164 ft | 16 kts | 70° |
| 2026-04-25 18:07 | 52.13326 | 7.68657 | 165 ft | 33 kts | 71° |
| 2026-04-25 18:07 | 52.13418 | 7.69093 | 164 ft | 48 kts | 71° |
| 2026-04-25 18:07 | 52.13468 | 7.69328 | 164 ft | 14 kts | 72° |
| 2026-04-25 18:08 | 52.13489 | 7.69417 | 164 ft | 0 kts | 66° |
| 2026-04-25 18:08 | 52.13507 | 7.69507 | 164 ft | 14 kts | 70° |
| 2026-04-25 18:08 | 52.13542 | 7.69667 | 164 ft | 18 kts | 71° |
| 2026-04-25 18:09 | 52.13578 | 7.69845 | 164 ft | 13 kts | 71° |
| 2026-04-25 18:09 | 52.13595 | 7.69927 | 164 ft | 12 kts | 73° |
| 2026-04-25 18:09 | 52.13657 | 7.70030 | 164 ft | 13 kts | 15° |
| 2026-04-25 18:09 | 52.13679 | 7.70035 | 164 ft | 9 kts | 2° |
| 2026-04-25 18:10 | 52.13693 | 7.70034 | 164 ft | 0 kts | 352° |
| 2026-04-25 18:10 | 52.13697 | 7.70033 | 164 ft | 5 kts | 350° |
| 2026-04-25 18:10 | 52.13761 | 7.69993 | 164 ft | 8 kts | 317° |
| 2026-04-25 18:11 | 52.13754 | 7.69853 | 164 ft | 29 kts | 251° |
| 2026-04-25 18:11 | 52.13610 | 7.69179 | 167 ft | 94 kts | 251° |
| 2026-04-25 18:11 | 52.13354 | 7.67996 | 411 ft | 124 kts | 252° |
| 2026-04-25 18:11 | 52.13033 | 7.66418 | 675 ft | 166 kts | 253° |
| 2026-04-25 18:12 | 52.12964 | 7.64524 | 1043 ft | 165 kts | 288° |
| 2026-04-25 18:12 | 52.13706 | 7.63253 | 1227 ft | 166 kts | 336° |
| 2026-04-25 18:12 | 52.14877 | 7.63140 | 1334 ft | 173 kts | 356° |
| 2026-04-25 18:12 | 52.16078 | 7.63481 | 1414 ft | 178 kts | 25° |
| 2026-04-25 18:13 | 52.16951 | 7.64934 | 1532 ft | 186 kts | 60° |
| 2026-04-25 18:13 | 52.17332 | 7.66954 | 1545 ft | 193 kts | 79° |
| 2026-04-25 18:13 | 52.17393 | 7.69139 | 1581 ft | 193 kts | 88° |
| 2026-04-25 18:14 | 52.17327 | 7.73470 | 1772 ft | 193 kts | 103° |
| 2026-04-25 18:14 | 52.16627 | 7.75223 | 1970 ft | 183 kts | 147° |
| 2026-04-25 18:14 | 52.15495 | 7.75936 | 1916 ft | 161 kts | 171° |